Time;durP1;ratioP1;P1;durP2;ratioP2;P2;SDS_P1;SDS_P2;PMS_P1;PMS_P2;Temp;Humidity;BMP_temperature;BMP_pressure;BME280_temperature;BME280_humidity;BME280_pressure;Samples;Min_cycle;Max_cycle;Signal;HPM_P1;HPM_P2
2023/04/11 00:00:57;;;;;;;6.53;6.03;;;;;;;;;;5075039;28;20444;-62
2023/04/11 00:03:24;;;;;;;7.40;6.70;;;;;;;;;;5075238;28;20479;-61
2023/04/11 00:05:51;;;;;;;7.47;6.77;;;;;;;;;;5075169;28;20482;-62
2023/04/11 00:08:19;;;;;;;7.20;6.50;;;;;;;;;;5075073;28;20555;-62
2023/04/11 00:10:46;;;;;;;7.63;6.83;;;;;;;;;;5074988;28;20540;-62
2023/04/11 00:13:13;;;;;;;8.83;6.60;;;;;;;;;;5074742;28;20567;-62
2023/04/11 00:15:40;;;;;;;7.33;6.63;;;;;;;;;;5074782;28;20550;-61
2023/04/11 00:18:07;;;;;;;7.57;6.77;;;;;;;;;;5074960;28;20447;-62
2023/04/11 00:20:34;;;;;;;7.50;6.77;;;;;;;;;;5074984;28;20451;-62
2023/04/11 00:23:01;;;;;;;7.10;6.40;;;;;;;;;;5074804;28;20570;-62
2023/04/11 00:25:31;;;;;;;9.93;7.53;;;;;;;;;;5074734;28;20480;-62
2023/04/11 00:27:59;;;;;;;7.73;6.87;;;;;;;;;;5074506;28;20452;-62
2023/04/11 00:30:25;;;;;;;7.23;6.50;;;;;;;;;;5074545;28;20440;-62
2023/04/11 00:32:52;;;;;;;8.30;7.17;;;;;;;;;;5074708;28;20488;-61
2023/04/11 00:35:19;;;;;;;7.20;6.60;;;;;;;;;;5074568;28;20842;-62
2023/04/11 00:37:50;;;;;;;8.10;7.40;;;;;;;;;;5074562;28;21008;-62
2023/04/11 00:40:17;;;;;;;9.33;6.40;;;;;;;;;;5074425;28;20458;-61
2023/04/11 00:42:45;;;;;;;7.67;6.47;;;;;;;;;;5074258;28;20502;-62
2023/04/11 00:45:13;;;;;;;7.43;6.63;;;;;;;;;;5074355;28;20534;-62
2023/04/11 00:47:40;;;;;;;7.40;6.67;;;;;;;;;;5074317;28;20483;-62
2023/04/11 00:50:07;;;;;;;6.90;6.30;;;;;;;;;;5074363;28;20461;-62
2023/04/11 00:52:35;;;;;;;6.83;6.13;;;;;;;;;;5073092;28;20468;-62
2023/04/11 00:55:02;;;;;;;7.03;6.33;;;;;;;;;;5074038;28;20454;-62
2023/04/11 00:57:29;;;;;;;7.53;6.83;;;;;;;;;;5074197;28;20543;-61
2023/04/11 00:59:58;;;;;;;8.60;7.80;;;;;;;;;;5073948;28;20573;-62
2023/04/11 01:02:25;;;;;;;7.67;6.87;;;;;;;;;;5074004;28;21003;-62
2023/04/11 01:04:52;;;;;;;7.63;6.83;;;;;;;;;;5073925;28;20505;-62
2023/04/11 01:07:20;;;;;;;7.57;6.87;;;;;;;;;;5073699;28;21020;-62
2023/04/11 01:09:47;;;;;;;7.27;6.67;;;;;;;;;;5073587;28;20444;-61
2023/04/11 01:12:15;;;;;;;8.50;7.70;;;;;;;;;;5073739;28;20484;-62
2023/04/11 01:14:42;;;;;;;7.90;7.20;;;;;;;;;;5073532;28;20480;-61
2023/04/11 01:17:11;;;;;;;8.27;7.47;;;;;;;;;;5073681;28;20538;-62
2023/04/11 01:19:38;;;;;;;8.20;7.50;;;;;;;;;;5073614;28;20539;-62
2023/04/11 01:22:05;;;;;;;7.43;6.83;;;;;;;;;;5073506;28;20474;-62
2023/04/11 01:24:33;;;;;;;8.40;7.53;;;;;;;;;;5073623;28;20547;-61
2023/04/11 01:27:01;;;;;;;8.23;7.20;;;;;;;;;;5073459;28;20455;-62
2023/04/11 01:29:28;;;;;;;8.10;7.03;;;;;;;;;;5073444;28;20443;-62
2023/04/11 01:31:54;;;;;;;8.50;7.47;;;;;;;;;;5073270;28;20478;-61
2023/04/11 01:34:22;;;;;;;7.50;6.30;;;;;;;;;;5073295;28;20448;-62
2023/04/11 01:36:49;;;;;;;9.20;7.10;;;;;;;;;;5073043;28;20531;-61
2023/04/11 01:39:16;;;;;;;10.03;7.77;;;;;;;;;;5073098;28;20931;-62
2023/04/11 01:41:44;;;;;;;8.53;7.53;;;;;;;;;;5073267;28;20532;-62
2023/04/11 01:44:11;;;;;;;7.60;6.90;;;;;;;;;;5072923;28;20878;-62
2023/04/11 01:46:38;;;;;;;9.17;7.50;;;;;;;;;;5073065;28;20535;-62
2023/04/11 01:49:06;;;;;;;8.23;7.37;;;;;;;;;;5073006;28;20491;-62
2023/04/11 01:51:33;;;;;;;8.60;7.63;;;;;;;;;;5072763;28;20450;-62
2023/04/11 01:54:00;;;;;;;9.63;7.30;;;;;;;;;;5073133;28;20451;-61
2023/04/11 01:56:27;;;;;;;7.53;6.83;;;;;;;;;;5072948;28;20892;-61
2023/04/11 01:58:57;;;;;;;7.90;7.20;;;;;;;;;;5072882;28;20534;-62
2023/04/11 02:01:24;;;;;;;8.57;7.73;;;;;;;;;;5072898;28;20458;-62
2023/04/11 02:03:51;;;;;;;7.63;6.93;;;;;;;;;;5072570;28;20864;-62
2023/04/11 02:06:19;;;;;;;8.47;7.57;;;;;;;;;;5072956;28;20548;-62
2023/04/11 02:08:46;;;;;;;8.40;7.60;;;;;;;;;;5072855;28;20459;-61
2023/04/11 02:11:12;;;;;;;7.80;7.00;;;;;;;;;;5072778;28;20539;-62
2023/04/11 02:13:39;;;;;;;8.27;7.50;;;;;;;;;;5072669;28;20528;-61
2023/04/11 02:16:10;;;;;;;8.63;7.80;;;;;;;;;;5072659;28;20539;-62
2023/04/11 02:18:37;;;;;;;7.77;7.00;;;;;;;;;;5072601;28;20536;-62
2023/04/11 02:21:04;;;;;;;8.23;7.43;;;;;;;;;;5072750;28;20534;-62
2023/04/11 02:23:31;;;;;;;8.23;7.23;;;;;;;;;;5072661;28;20480;-61
2023/04/11 02:25:58;;;;;;;8.77;7.97;;;;;;;;;;5072633;28;20494;-61
2023/04/11 02:28:25;;;;;;;8.50;7.57;;;;;;;;;;5072597;28;20467;-62
2023/04/11 02:30:52;;;;;;;7.40;6.70;;;;;;;;;;5072462;28;20535;-62
2023/04/11 02:33:20;;;;;;;8.50;7.40;;;;;;;;;;5072294;28;20653;-61
2023/04/11 02:35:48;;;;;;;8.33;7.33;;;;;;;;;;5072558;28;20561;-62
2023/04/11 02:38:15;;;;;;;8.07;7.33;;;;;;;;;;5072499;28;20799;-61
2023/04/11 02:40:42;;;;;;;8.17;7.40;;;;;;;;;;5072449;28;20483;-62
2023/04/11 02:43:08;;;;;;;7.37;6.67;;;;;;;;;;5072584;28;20903;-61
2023/04/11 02:45:35;;;;;;;9.10;7.90;;;;;;;;;;5072506;28;20554;-62
2023/04/11 02:48:02;;;;;;;7.97;7.17;;;;;;;;;;5072723;28;20885;-61
2023/04/11 02:50:31;;;;;;;8.47;7.67;;;;;;;;;;5072624;28;20884;-61
2023/04/11 02:52:58;;;;;;;9.33;8.30;;;;;;;;;;5072215;28;21024;-62
2023/04/11 02:55:25;;;;;;;7.90;7.10;;;;;;;;;;5072380;28;20811;-61
2023/04/11 02:57:52;;;;;;;8.53;7.73;;;;;;;;;;5072176;28;20868;-62
2023/04/11 03:00:20;;;;;;;7.50;6.87;;;;;;;;;;5072436;28;20506;-62
2023/04/11 03:02:48;;;;;;;7.53;6.93;;;;;;;;;;5072444;28;20876;-61
2023/04/11 03:05:15;;;;;;;9.17;7.77;;;;;;;;;;5072167;28;20575;-62
2023/04/11 03:07:45;;;;;;;7.33;6.63;;;;;;;;;;5072162;28;20938;-61
2023/04/11 03:10:12;;;;;;;8.17;7.37;;;;;;;;;;5072556;28;20927;-62
2023/04/11 03:12:39;;;;;;;7.83;7.13;;;;;;;;;;5072101;28;20966;-61
2023/04/11 03:15:07;;;;;;;7.40;6.70;;;;;;;;;;5072411;28;20478;-62
2023/04/11 03:17:34;;;;;;;9.70;6.97;;;;;;;;;;5075320;28;21108;-62
2023/04/11 03:20:05;;;;;;;8.07;7.20;;;;;;;;;;5076185;28;21004;-61
2023/04/11 03:22:32;;;;;;;7.87;6.67;;;;;;;;;;5075862;28;20939;-62
2023/04/11 03:25:01;;;;;;;8.37;7.57;;;;;;;;;;5075806;28;20476;-62
2023/04/11 03:27:28;;;;;;;8.37;7.50;;;;;;;;;;5075949;28;20451;-61
2023/04/11 03:29:55;;;;;;;8.67;7.40;;;;;;;;;;5075869;28;20479;-62
2023/04/11 03:32:22;;;;;;;7.77;7.07;;;;;;;;;;5075687;28;20554;-62
2023/04/11 03:34:48;;;;;;;8.70;7.90;;;;;;;;;;5075637;28;20776;-61
2023/04/11 03:37:15;;;;;;;7.70;7.00;;;;;;;;;;5075535;28;20452;-61
2023/04/11 03:39:42;;;;;;;8.53;7.63;;;;;;;;;;5075466;28;20538;-62
2023/04/11 03:42:11;;;;;;;7.47;6.73;;;;;;;;;;5075562;28;20448;-62
2023/04/11 03:44:38;;;;;;;8.73;7.93;;;;;;;;;;5075245;28;20970;-61
2023/04/11 03:47:05;;;;;;;7.43;6.83;;;;;;;;;;5075528;28;20448;-61
2023/04/11 03:49:32;;;;;;;8.77;7.47;;;;;;;;;;5075298;28;20538;-62
2023/04/11 03:51:59;;;;;;;7.50;6.20;;;;;;;;;;5075298;28;20453;-62
2023/04/11 03:54:26;;;;;;;7.53;6.83;;;;;;;;;;5075020;28;20562;-61
2023/04/11 03:56:53;;;;;;;7.80;7.00;;;;;;;;;;5075422;28;20650;-62
2023/04/11 03:59:21;;;;;;;8.30;7.50;;;;;;;;;;5075287;28;20544;-62
2023/04/11 04:01:48;;;;;;;8.37;7.57;;;;;;;;;;5075174;28;20458;-61
2023/04/11 04:04:15;;;;;;;8.53;7.73;;;;;;;;;;5075085;28;20452;-61
2023/04/11 04:06:44;;;;;;;9.93;8.97;;;;;;;;;;5074854;28;20551;-62
2023/04/11 04:09:11;;;;;;;8.83;7.57;;;;;;;;;;5075144;28;20509;-62
2023/04/11 04:11:38;;;;;;;8.30;7.50;;;;;;;;;;5075074;28;20458;-61
2023/04/11 04:14:05;;;;;;;7.90;6.90;;;;;;;;;;5074827;28;20483;-61
2023/04/11 04:16:33;;;;;;;7.43;6.67;;;;;;;;;;5074800;28;20458;-61
2023/04/11 04:19:01;;;;;;;6.63;6.03;;;;;;;;;;5074733;28;20454;-62
2023/04/11 04:21:31;;;;;;;7.57;6.70;;;;;;;;;;5074632;28;20448;-62
2023/04/11 04:24:02;;;;;;;8.03;7.27;;;;;;;;;;5075182;28;20811;-62
2023/04/11 04:26:30;;;;;;;8.10;7.30;;;;;;;;;;5074864;28;20451;-62
2023/04/11 04:29:03;;;;;;;7.27;6.67;;;;;;;;;;5074681;28;20547;-62
2023/04/11 04:31:32;;;;;;;7.63;6.90;;;;;;;;;;5074664;28;20449;-62
2023/04/11 04:34:01;;;;;;;7.53;6.83;;;;;;;;;;5074334;28;20483;-61
2023/04/11 04:36:29;;;;;;;8.50;5.87;;;;;;;;;;5074606;28;20447;-62
2023/04/11 04:39:00;;;;;;;9.63;8.73;;;;;;;;;;5074350;28;20459;-62
2023/04/11 04:41:35;;;;;;;9.03;8.13;;;;;;;;;;5074393;28;20451;-62
2023/04/11 04:44:04;;;;;;;7.73;6.77;;;;;;;;;;5074130;28;20642;-62
2023/04/11 04:46:35;;;;;;;7.80;7.00;;;;;;;;;;5074136;28;20447;-62
2023/04/11 04:49:03;;;;;;;7.97;7.20;;;;;;;;;;5074246;28;20501;-61
2023/04/11 04:51:46;;;;;;;8.17;7.10;;;;;;;;;;5074131;28;20969;-62
2023/04/11 04:54:14;;;;;;;9.70;7.40;;;;;;;;;;5074115;28;20518;-62
2023/04/11 04:56:42;;;;;;;9.40;7.23;;;;;;;;;;5073986;28;20967;-62
2023/04/11 04:59:13;;;;;;;8.70;7.90;;;;;;;;;;5074120;28;20487;-62
2023/04/11 05:01:40;;;;;;;8.00;7.20;;;;;;;;;;5074121;28;20444;-61
2023/04/11 05:04:08;;;;;;;9.97;8.70;;;;;;;;;;5073895;28;20531;-62
2023/04/11 05:06:35;;;;;;;8.33;7.50;;;;;;;;;;5073785;28;20502;-62
2023/04/11 05:09:04;;;;;;;11.00;8.20;;;;;;;;;;5073621;28;20483;-61
2023/04/11 05:11:32;;;;;;;8.97;7.40;;;;;;;;;;5073472;28;20444;-61
2023/04/11 05:13:58;;;;;;;9.70;8.60;;;;;;;;;;5073518;28;20596;-62
2023/04/11 05:16:26;;;;;;;8.17;7.40;;;;;;;;;;5073829;28;20539;-62
2023/04/11 05:18:53;;;;;;;9.20;8.40;;;;;;;;;;5073620;28;20455;-61
2023/04/11 05:21:22;;;;;;;9.27;8.37;;;;;;;;;;5073386;28;20539;-62
2023/04/11 05:23:49;;;;;;;8.17;7.37;;;;;;;;;;5073354;28;20946;-61
2023/04/11 05:26:16;;;;;;;8.07;7.27;;;;;;;;;;5073527;28;20864;-61
2023/04/11 05:28:43;;;;;;;7.90;7.20;;;;;;;;;;5073341;28;20535;-62
2023/04/11 05:31:10;;;;;;;9.27;8.37;;;;;;;;;;5073458;28;20452;-61
2023/04/11 05:33:38;;;;;;;13.47;8.13;;;;;;;;;;5073264;28;20533;-62
2023/04/11 05:36:05;;;;;;;10.60;9.17;;;;;;;;;;5073212;28;20519;-61
2023/04/11 05:38:33;;;;;;;11.70;9.30;;;;;;;;;;5072517;28;20476;-61
2023/04/11 05:41:00;;;;;;;10.97;8.40;;;;;;;;;;5073193;28;21053;-61
2023/04/11 05:43:27;;;;;;;10.53;7.93;;;;;;;;;;5073632;28;20814;-62
2023/04/11 05:45:54;;;;;;;11.20;9.07;;;;;;;;;;5073001;28;20547;-62
2023/04/11 05:48:22;;;;;;;10.67;8.60;;;;;;;;;;5072821;28;20458;-62
2023/04/11 05:50:50;;;;;;;14.63;9.60;;;;;;;;;;5072919;28;20456;-62
2023/04/11 05:53:17;;;;;;;11.07;9.97;;;;;;;;;;5072736;28;20999;-62
2023/04/11 05:55:45;;;;;;;11.80;8.93;;;;;;;;;;5072706;28;20454;-62
2023/04/11 05:58:12;;;;;;;10.53;9.40;;;;;;;;;;5072881;28;20558;-62
2023/04/11 06:00:39;;;;;;;10.33;9.20;;;;;;;;;;5072813;28;20492;-62
2023/04/11 06:03:08;;;;;;;12.03;9.37;;;;;;;;;;5072575;28;20495;-62
2023/04/11 06:05:35;;;;;;;10.00;8.20;;;;;;;;;;5072753;28;20509;-62
2023/04/11 06:08:03;;;;;;;10.27;8.90;;;;;;;;;;5073172;28;20535;-62
2023/04/11 06:10:30;;;;;;;11.67;9.00;;;;;;;;;;5072894;28;20459;-62
2023/04/11 06:12:58;;;;;;;11.07;8.93;;;;;;;;;;5072602;28;20448;-62
2023/04/11 06:15:26;;;;;;;10.97;9.03;;;;;;;;;;5072678;28;20543;-62
2023/04/11 06:17:53;;;;;;;9.90;8.63;;;;;;;;;;5072446;28;20807;-62
2023/04/11 06:20:20;;;;;;;11.80;9.03;;;;;;;;;;5072490;28;20465;-62
2023/04/11 06:22:50;;;;;;;9.53;8.60;;;;;;;;;;5072656;28;20443;-62
2023/04/11 06:25:17;;;;;;;9.73;8.33;;;;;;;;;;5072504;28;20461;-62
2023/04/11 06:27:44;;;;;;;10.00;8.57;;;;;;;;;;5072459;28;20551;-62
2023/04/11 06:30:12;;;;;;;9.93;7.93;;;;;;;;;;5072514;28;20447;-61
2023/04/11 06:32:40;;;;;;;9.60;8.33;;;;;;;;;;5072945;28;20451;-61
2023/04/11 06:35:07;;;;;;;8.93;7.47;;;;;;;;;;5072572;28;20993;-61
2023/04/11 06:37:34;;;;;;;10.50;9.40;;;;;;;;;;5072726;28;20844;-61
2023/04/11 06:40:01;;;;;;;9.70;8.47;;;;;;;;;;5072392;28;20448;-62
2023/04/11 06:42:28;;;;;;;8.13;7.33;;;;;;;;;;5072406;28;20880;-61
2023/04/11 06:44:55;;;;;;;9.30;8.40;;;;;;;;;;5072182;28;20534;-62
2023/04/11 06:47:23;;;;;;;9.07;7.77;;;;;;;;;;5072294;28;20450;-61
2023/04/11 06:49:50;;;;;;;8.70;7.70;;;;;;;;;;5072573;28;20456;-61
2023/04/11 06:52:17;;;;;;;8.23;7.43;;;;;;;;;;5075343;28;20909;-61
2023/04/11 06:54:44;;;;;;;13.00;8.50;;;;;;;;;;5076451;28;20489;-61
2023/04/11 06:57:12;;;;;;;9.03;8.00;;;;;;;;;;5076253;28;20447;-62
2023/04/11 06:59:39;;;;;;;9.03;8.13;;;;;;;;;;5076268;28;20481;-62
2023/04/11 07:02:06;;;;;;;7.93;7.07;;;;;;;;;;5076364;28;20857;-62
2023/04/11 07:04:34;;;;;;;8.00;7.27;;;;;;;;;;5076384;28;20926;-62
2023/04/11 07:07:02;;;;;;;9.13;8.23;;;;;;;;;;5076155;28;20539;-62
2023/04/11 07:09:30;;;;;;;9.40;7.80;;;;;;;;;;5075966;28;20928;-61
2023/04/11 07:11:57;;;;;;;8.80;7.40;;;;;;;;;;5075983;28;20487;-61
2023/04/11 07:14:24;;;;;;;9.30;8.20;;;;;;;;;;5075657;28;20483;-61
2023/04/11 07:16:51;;;;;;;10.10;9.10;;;;;;;;;;5075992;28;20451;-60
2023/04/11 07:19:18;;;;;;;8.83;7.90;;;;;;;;;;5075810;28;21037;-62
2023/04/11 07:21:47;;;;;;;8.50;7.63;;;;;;;;;;5071729;28;20445;-60
2023/04/11 07:24:17;;;;;;;9.27;8.37;;;;;;;;;;5075247;28;20466;-60
2023/04/11 07:26:45;;;;;;;8.03;7.33;;;;;;;;;;5077111;28;20526;-65
2023/04/11 07:29:12;;;;;;;8.57;7.67;;;;;;;;;;5075250;28;20530;-61
2023/04/11 07:31:39;;;;;;;9.67;7.80;;;;;;;;;;5075339;28;20444;-60
2023/04/11 07:34:06;;;;;;;7.57;6.87;;;;;;;;;;5075357;28;20866;-61
2023/04/11 07:36:33;;;;;;;8.33;7.53;;;;;;;;;;5075258;28;20965;-62
2023/04/11 07:39:03;;;;;;;7.90;7.10;;;;;;;;;;5074879;28;20444;-61
2023/04/11 07:41:30;;;;;;;8.63;7.83;;;;;;;;;;5075197;28;21017;-62
2023/04/11 07:43:57;;;;;;;9.37;8.47;;;;;;;;;;5074314;28;20567;-60
2023/04/11 07:46:24;;;;;;;8.60;7.80;;;;;;;;;;5074122;28;20447;-62
2023/04/11 07:48:51;;;;;;;8.37;7.47;;;;;;;;;;5074047;28;20455;-63
2023/04/11 07:51:18;;;;;;;8.13;7.30;;;;;;;;;;5073843;28;20547;-62
2023/04/11 07:53:45;;;;;;;8.30;7.50;;;;;;;;;;5073831;28;20467;-63
2023/04/11 07:56:13;;;;;;;8.80;7.90;;;;;;;;;;5073700;28;20546;-62
2023/04/11 07:58:40;;;;;;;10.23;9.23;;;;;;;;;;5074102;28;20807;-62
2023/04/11 08:01:08;;;;;;;14.93;11.13;;;;;;;;;;5074164;28;20454;-62
2023/04/11 08:03:35;;;;;;;7.53;6.83;;;;;;;;;;5073419;28;20462;-62
2023/04/11 08:06:02;;;;;;;9.83;8.00;;;;;;;;;;5074057;28;20463;-62
2023/04/11 08:08:29;;;;;;;9.20;8.00;;;;;;;;;;5074014;28;20883;-62
2023/04/11 08:10:56;;;;;;;8.20;7.40;;;;;;;;;;5074146;28;20448;-63
2023/04/11 08:13:24;;;;;;;8.33;7.50;;;;;;;;;;5074160;28;20455;-62
2023/04/11 08:15:51;;;;;;;9.80;7.90;;;;;;;;;;5073879;28;20479;-62
2023/04/11 08:18:20;;;;;;;8.77;7.87;;;;;;;;;;5074035;28;20448;-62
2023/04/11 08:20:47;;;;;;;9.93;8.00;;;;;;;;;;5073945;28;20483;-62
2023/04/11 08:23:14;;;;;;;8.13;7.33;;;;;;;;;;5074113;28;20816;-63
2023/04/11 08:25:41;;;;;;;10.13;9.07;;;;;;;;;;5074006;28;20892;-62
2023/04/11 08:28:10;;;;;;;8.10;6.87;;;;;;;;;;5073883;28;20451;-63
2023/04/11 08:30:38;;;;;;;12.47;8.37;;;;;;;;;;5073855;28;20463;-62
2023/04/11 08:33:06;;;;;;;8.70;7.87;;;;;;;;;;5073861;28;20444;-63
2023/04/11 08:35:32;;;;;;;9.43;8.17;;;;;;;;;;5073575;28;20482;-62
2023/04/11 08:37:59;;;;;;;8.90;8.10;;;;;;;;;;5073366;28;20530;-61
2023/04/11 08:40:26;;;;;;;9.30;7.70;;;;;;;;;;5073664;28;20544;-64
2023/04/11 08:42:58;;;;;;;9.00;8.10;;;;;;;;;;5039903;28;955987;-63
2023/04/11 08:45:25;;;;;;;9.50;8.30;;;;;;;;;;5074408;28;20480;-63
2023/04/11 08:47:54;;;;;;;10.03;7.30;;;;;;;;;;5074256;28;20542;-63
2023/04/11 08:50:21;;;;;;;8.20;7.40;;;;;;;;;;5074243;28;20543;-62
2023/04/11 08:52:48;;;;;;;8.37;6.70;;;;;;;;;;5074252;28;20531;-63
2023/04/11 08:55:15;;;;;;;7.30;6.47;;;;;;;;;;5073795;28;20506;-62
2023/04/11 08:57:42;;;;;;;9.40;7.20;;;;;;;;;;5074242;28;20490;-63
2023/04/11 09:00:13;;;;;;;8.23;7.43;;;;;;;;;;5073911;28;20923;-63
2023/04/11 09:02:57;;;;;;;10.20;6.50;;;;;;;;;;5073990;28;20482;-62
2023/04/11 09:05:25;;;;;;;8.60;6.80;;;;;;;;;;5074240;28;20542;-63
2023/04/11 09:07:52;;;;;;;7.50;6.80;;;;;;;;;;5074140;28;20487;-64
2023/04/11 09:10:19;;;;;;;6.87;5.60;;;;;;;;;;5074117;28;20448;-64
2023/04/11 09:12:46;;;;;;;5.50;4.60;;;;;;;;;;5073890;28;20981;-64
2023/04/11 09:15:20;;;;;;;5.50;5.00;;;;;;;;;;5072833;28;20935;-64
2023/04/11 09:17:48;;;;;;;5.73;4.90;;;;;;;;;;5073890;28;20521;-62
2023/04/11 09:20:20;;;;;;;5.03;4.53;;;;;;;;;;5073183;28;20505;-62
2023/04/11 09:22:49;;;;;;;4.73;4.30;;;;;;;;;;5072114;28;20452;-61
2023/04/11 09:25:16;;;;;;;5.63;4.30;;;;;;;;;;5072978;28;20894;-60
2023/04/11 09:27:43;;;;;;;4.30;3.90;;;;;;;;;;5073284;28;20799;-60
2023/04/11 09:30:28;;;;;;;4.33;3.80;;;;;;;;;;5073633;28;21018;-59
2023/04/11 09:32:55;;;;;;;4.80;3.80;;;;;;;;;;5073655;28;20444;-60
2023/04/11 09:35:27;;;;;;;5.97;3.70;;;;;;;;;;5073608;28;20484;-59
2023/04/11 09:37:54;;;;;;;4.67;3.80;;;;;;;;;;5072943;28;20807;-60
2023/04/11 09:40:23;;;;;;;4.50;3.20;;;;;;;;;;5073498;28;20448;-60
2023/04/11 09:42:56;;;;;;;6.90;3.80;;;;;;;;;;5073252;28;20479;-61
2023/04/11 09:45:24;;;;;;;3.03;2.67;;;;;;;;;;5073320;28;20462;-59
2023/04/11 09:47:52;;;;;;;4.77;3.30;;;;;;;;;;5073277;28;20494;-60
2023/04/11 09:50:19;;;;;;;5.90;2.83;;;;;;;;;;5073076;28;20444;-62
2023/04/11 09:52:47;;;;;;;3.10;2.43;;;;;;;;;;5073011;28;20534;-60
2023/04/11 09:55:15;;;;;;;5.10;3.20;;;;;;;;;;5073382;28;20574;-61
2023/04/11 09:57:44;;;;;;;3.77;3.00;;;;;;;;;;5073089;28;20479;-62
2023/04/11 10:00:15;;;;;;;4.70;2.13;;;;;;;;;;5072931;28;20459;-60
2023/04/11 10:02:43;;;;;;;3.37;2.70;;;;;;;;;;5073259;28;20858;-63
2023/04/11 10:05:11;;;;;;;3.30;2.57;;;;;;;;;;5072937;28;20682;-60
2023/04/11 10:07:46;;;;;;;3.07;2.10;;;;;;;;;;5072458;28;20452;-58
2023/04/11 10:10:18;;;;;;;5.03;2.27;;;;;;;;;;5072969;28;20542;-64
2023/04/11 10:12:45;;;;;;;2.53;2.33;;;;;;;;;;5072036;28;20447;-61
2023/04/11 10:15:13;;;;;;;3.43;2.13;;;;;;;;;;5072460;28;20573;-61
2023/04/11 10:17:40;;;;;;;4.47;2.30;;;;;;;;;;5072046;28;20539;-60
2023/04/11 10:20:22;;;;;;;4.70;2.53;;;;;;;;;;5072986;28;20535;-61
2023/04/11 10:23:00;;;;;;;4.90;1.70;;;;;;;;;;5060312;28;20863;-59
2023/04/11 10:25:28;;;;;;;5.47;2.60;;;;;;;;;;5072812;28;20449;-58
2023/04/11 10:27:59;;;;;;;2.63;2.07;;;;;;;;;;5072630;28;21013;-58
2023/04/11 10:30:41;;;;;;;3.93;2.43;;;;;;;;;;5072680;28;20497;-59
2023/04/11 10:33:12;;;;;;;4.73;1.83;;;;;;;;;;5072002;28;20538;-59
2023/04/11 10:35:53;;;;;;;3.80;1.90;;;;;;;;;;5071927;28;20519;-60
2023/04/11 10:38:39;;;;;;;5.30;1.93;;;;;;;;;;5071787;28;20551;-60
2023/04/11 10:41:25;;;;;;;7.50;2.70;;;;;;;;;;5070807;28;20517;-60
2023/04/11 10:43:52;;;;;;;4.60;3.37;;;;;;;;;;5071941;28;21014;-59
2023/04/11 10:46:21;;;;;;;5.90;2.27;;;;;;;;;;5072260;28;20456;-63
2023/04/11 10:48:57;;;;;;;4.43;2.77;;;;;;;;;;5071534;28;20537;-61
2023/04/11 10:51:26;;;;;;;4.77;2.17;;;;;;;;;;5072502;28;20449;-61
2023/04/11 10:53:54;;;;;;;2.50;1.30;;;;;;;;;;5072025;28;20484;-60
2023/04/11 10:56:40;;;;;;;4.77;1.90;;;;;;;;;;5072228;28;21085;-62
2023/04/11 10:59:09;;;;;;;3.43;1.83;;;;;;;;;;5072452;28;20888;-66
2023/04/11 11:01:37;;;;;;;8.63;2.03;;;;;;;;;;5072324;28;20805;-58
2023/04/11 11:04:04;;;;;;;4.53;1.83;;;;;;;;;;5072563;28;20448;-59
2023/04/11 11:06:34;;;;;;;6.20;1.80;;;;;;;;;;5072389;28;20498;-62
2023/04/11 11:09:01;;;;;;;2.83;1.30;;;;;;;;;;5072360;28;20535;-63
2023/04/11 11:11:29;;;;;;;4.60;1.30;;;;;;;;;;5072247;28;20449;-60
2023/04/11 11:13:57;;;;;;;2.10;1.33;;;;;;;;;;5072107;28;20551;-64
2023/04/11 11:16:26;;;;;;;3.10;1.70;;;;;;;;;;5069558;28;20458;-60
2023/04/11 11:18:53;;;;;;;2.00;1.80;;;;;;;;;;5072044;28;20195;-60
2023/04/11 11:21:22;;;;;;;4.97;1.40;;;;;;;;;;5071889;28;20448;-62
2023/04/11 11:23:57;;;;;;;4.00;1.50;;;;;;;;;;5071666;28;20958;-62
2023/04/11 11:26:25;;;;;;;3.10;1.00;;;;;;;;;;5071817;28;20543;-62
2023/04/11 11:28:52;;;;;;;3.87;1.80;;;;;;;;;;5071535;28;20980;-59
2023/04/11 11:31:19;;;;;;;2.43;2.10;;;;;;;;;;5072139;28;20451;-63
2023/04/11 11:33:47;;;;;;;2.00;1.80;;;;;;;;;;5072136;28;20448;-61
2023/04/11 11:36:15;;;;;;;2.57;1.70;;;;;;;;;;5071972;28;20570;-62
2023/04/11 11:38:42;;;;;;;5.90;1.50;;;;;;;;;;5075365;28;20459;-62
2023/04/11 11:41:10;;;;;;;2.03;1.60;;;;;;;;;;5075626;28;20448;-60
2023/04/11 11:43:40;;;;;;;5.10;2.17;;;;;;;;;;5075574;28;20503;-61
2023/04/11 11:46:08;;;;;;;6.63;2.27;;;;;;;;;;5075258;28;20454;-62
2023/04/11 11:48:35;;;;;;;3.90;2.00;;;;;;;;;;5075613;28;20538;-63
2023/04/11 11:51:03;;;;;;;4.20;2.10;;;;;;;;;;5075332;28;20453;-64
2023/04/11 11:53:31;;;;;;;3.03;2.50;;;;;;;;;;5075326;28;20447;-61
2023/04/11 11:55:58;;;;;;;3.67;2.90;;;;;;;;;;5075383;28;20475;-62
2023/04/11 11:58:25;;;;;;;5.87;2.50;;;;;;;;;;5075397;28;20456;-65
2023/04/11 12:00:52;;;;;;;5.57;4.23;;;;;;;;;;5075355;28;20490;-62
2023/04/11 12:03:21;;;;;;;4.10;2.57;;;;;;;;;;5075158;28;20543;-62
2023/04/11 12:05:50;;;;;;;4.63;2.80;;;;;;;;;;5075074;28;20448;-64
2023/04/11 12:08:19;;;;;;;3.53;2.33;;;;;;;;;;5075075;28;20448;-62
2023/04/11 12:10:47;;;;;;;3.80;2.00;;;;;;;;;;5074999;28;20560;-61
2023/04/11 12:13:14;;;;;;;1.40;1.10;;;;;;;;;;5075108;28;20454;-63
2023/04/11 12:15:44;;;;;;;4.37;1.53;;;;;;;;;;5074919;28;20476;-61
2023/04/11 12:18:11;;;;;;;2.47;1.20;;;;;;;;;;5074947;28;20488;-60
2023/04/11 12:20:38;;;;;;;3.40;1.53;;;;;;;;;;5074672;28;20535;-61
2023/04/11 12:23:05;;;;;;;1.43;1.30;;;;;;;;;;5074541;28;20490;-60
2023/04/11 12:25:33;;;;;;;3.07;1.50;;;;;;;;;;5075048;28;20459;-61
2023/04/11 12:28:00;;;;;;;3.60;1.43;;;;;;;;;;5073980;28;20535;-61
2023/04/11 12:30:27;;;;;;;2.20;1.60;;;;;;;;;;5073909;28;20828;-60
2023/04/11 12:32:55;;;;;;;1.73;1.10;;;;;;;;;;5074628;28;20457;-64
2023/04/11 12:35:21;;;;;;;1.97;1.33;;;;;;;;;;5074672;28;20477;-61
2023/04/11 12:37:49;;;;;;;1.83;1.73;;;;;;;;;;5074580;28;20483;-61
2023/04/11 12:40:16;;;;;;;2.80;1.37;;;;;;;;;;5074619;28;20445;-62
2023/04/11 12:42:47;;;;;;;1.73;1.33;;;;;;;;;;5074610;28;20531;-61
2023/04/11 12:45:15;;;;;;;1.53;0.90;;;;;;;;;;5074455;28;20961;-61
2023/04/11 12:47:41;;;;;;;1.30;1.20;;;;;;;;;;5073890;28;20480;-61
2023/04/11 12:50:09;;;;;;;1.77;0.90;;;;;;;;;;5073394;28;20451;-61
2023/04/11 12:52:36;;;;;;;2.53;1.20;;;;;;;;;;5074300;28;20622;-60
2023/04/11 12:55:03;;;;;;;1.27;1.10;;;;;;;;;;5074398;28;20935;-59
2023/04/11 12:57:30;;;;;;;2.60;1.57;;;;;;;;;;5074295;28;20559;-59
2023/04/11 12:59:59;;;;;;;1.83;1.20;;;;;;;;;;5073877;28;20444;-59
2023/04/11 13:02:25;;;;;;;1.77;0.97;;;;;;;;;;5074137;28;20453;-61
2023/04/11 13:04:53;;;;;;;2.20;1.10;;;;;;;;;;5074241;28;20544;-60
2023/04/11 13:07:20;;;;;;;1.40;1.00;;;;;;;;;;5071959;28;20463;-61
2023/04/11 13:09:47;;;;;;;1.00;0.90;;;;;;;;;;5073403;28;20544;-61
2023/04/11 13:12:14;;;;;;;2.27;1.20;;;;;;;;;;5073635;28;20455;-61
2023/04/11 13:14:41;;;;;;;2.07;1.27;;;;;;;;;;5073939;28;20530;-61
2023/04/11 13:17:09;;;;;;;1.10;1.00;;;;;;;;;;5073829;28;20484;-60
2023/04/11 13:19:36;;;;;;;3.70;0.90;;;;;;;;;;5073722;28;20456;-61
2023/04/11 13:22:03;;;;;;;2.17;1.10;;;;;;;;;;5073868;28;20481;-61
2023/04/11 13:24:31;;;;;;;1.50;1.17;;;;;;;;;;5073760;28;20446;-61
2023/04/11 13:26:58;;;;;;;1.90;1.30;;;;;;;;;;5073630;28;20841;-61
2023/04/11 13:29:25;;;;;;;3.30;1.50;;;;;;;;;;5073551;28;20971;-61
2023/04/11 13:31:52;;;;;;;0.83;0.80;;;;;;;;;;5073757;28;20479;-61
2023/04/11 13:34:21;;;;;;;2.33;1.00;;;;;;;;;;5073680;28;20550;-61
2023/04/11 13:36:48;;;;;;;1.13;0.70;;;;;;;;;;5072729;28;20484;-61
2023/04/11 13:39:14;;;;;;;1.50;0.83;;;;;;;;;;5073538;28;20474;-61
2023/04/11 13:41:41;;;;;;;1.20;0.90;;;;;;;;;;5073439;28;20478;-61
2023/04/11 13:44:08;;;;;;;3.03;0.73;;;;;;;;;;5073032;28;20553;-61
2023/04/11 13:46:35;;;;;;;1.27;0.87;;;;;;;;;;5073550;28;20448;-61
2023/04/11 13:49:04;;;;;;;1.97;1.30;;;;;;;;;;5073373;28;20490;-61
2023/04/11 13:51:32;;;;;;;3.83;1.00;;;;;;;;;;5073274;28;20452;-61
2023/04/11 13:53:59;;;;;;;2.53;0.80;;;;;;;;;;5073232;28;20480;-61
2023/04/11 13:56:26;;;;;;;4.70;0.83;;;;;;;;;;5073074;28;20847;-61
2023/04/11 13:58:53;;;;;;;0.80;0.70;;;;;;;;;;5073373;28;20478;-61
2023/04/11 14:01:20;;;;;;;1.47;0.90;;;;;;;;;;5072868;28;20484;-61
2023/04/11 14:03:48;;;;;;;1.40;0.80;;;;;;;;;;5073016;28;20961;-61
2023/04/11 14:06:15;;;;;;;3.17;0.90;;;;;;;;;;5072897;28;20529;-61
2023/04/11 14:08:43;;;;;;;0.70;0.60;;;;;;;;;;5073017;28;20526;-62
2023/04/11 14:11:10;;;;;;;1.27;0.80;;;;;;;;;;5072841;28;20456;-61
2023/04/11 14:13:37;;;;;;;1.77;0.90;;;;;;;;;;5073094;28;20535;-61
2023/04/11 14:16:04;;;;;;;1.40;1.00;;;;;;;;;;5072962;28;20480;-61
2023/04/11 14:18:31;;;;;;;1.33;0.80;;;;;;;;;;5073029;28;20475;-61
2023/04/11 14:21:00;;;;;;;0.90;0.90;;;;;;;;;;5072871;28;20539;-61
2023/04/11 14:23:27;;;;;;;1.03;0.80;;;;;;;;;;5072836;28;20448;-61
2023/04/11 14:25:56;;;;;;;2.10;1.03;;;;;;;;;;5073152;28;20846;-61
2023/04/11 14:28:23;;;;;;;2.50;0.80;;;;;;;;;;5072958;28;20459;-62
2023/04/11 14:30:50;;;;;;;1.10;1.00;;;;;;;;;;5072846;28;20454;-61
2023/04/11 14:33:17;;;;;;;1.53;1.23;;;;;;;;;;5072555;28;20448;-62
2023/04/11 14:35:45;;;;;;;2.03;1.10;;;;;;;;;;5072597;28;20451;-62
2023/04/11 14:38:13;;;;;;;1.87;1.10;;;;;;;;;;5072591;28;20911;-62
2023/04/11 14:40:40;;;;;;;2.93;1.10;;;;;;;;;;5072798;28;20456;-61
2023/04/11 14:43:08;;;;;;;1.10;1.00;;;;;;;;;;5072467;28;21056;-62
2023/04/11 14:45:36;;;;;;;0.90;0.77;;;;;;;;;;5072761;28;20476;-61